Havbugvin — XPYL — position and weather

sailwx.info

Track history (hours):
 
Tides and Currents Weather Stations Pressure Air Temp Water Temp Dewpoint Dewpoint Depression Visibility Wind Speed Wind Dir Waves Ship Positions

Havbugvin

Last reported at 2014-Nov-24 02:33 UTC. Time now 2014-Nov-24 02:59 UTC.
Position N 62°00' W 006°46'.

Length 38 m.

Type: Fishing. MMSI: 231181000.

Date/timePositionNaut miles runAvg speedWind from/ knotsBaromVisibWave heightAir tempDewpointWater temp
2014-Nov-24 02:33N 62°00' W 006°46'0 0.0
2014-Nov-24 01:33N 62°00' W 006°46'0 0.0
2014-Nov-24 00:33N 62°00' W 006°46'0 0.0
2014-Nov-23 23:33N 62°00' W 006°46'0 0.0
2014-Nov-23 22:33N 62°00' W 006°46'0 0.0
2014-Nov-23 21:33N 62°00' W 006°46'0 0.0
2014-Nov-23 20:33N 62°00' W 006°46'0 0.0
2014-Nov-23 19:33N 62°00' W 006°46'0 0.0
2014-Nov-23 18:33N 62°00' W 006°46'0 0.0
2014-Nov-23 17:33N 62°00' W 006°46'0 0.0
2014-Nov-23 16:33N 62°00' W 006°46'0 0.0
2014-Nov-23 15:33N 62°00' W 006°46'0 0.0
2014-Nov-23 14:33N 62°00' W 006°46'0 0.0
2014-Nov-23 13:33N 62°00' W 006°46'0 0.0
2014-Nov-23 12:33N 62°00' W 006°46'0 0.0
2014-Nov-23 11:33N 62°00' W 006°46'0 0.0
2014-Nov-23 10:33N 62°00' W 006°46'0 0.0
2014-Nov-23 09:33N 62°00' W 006°46'0 0.0
2014-Nov-23 08:33N 62°00' W 006°46'0 0.0
2014-Nov-23 07:33N 62°00' W 006°46'0 0.0
2014-Nov-23 06:33N 62°00' W 006°46'0 0.0
2014-Nov-23 05:33N 62°00' W 006°46'0 0.0
2014-Nov-23 04:33N 62°00' W 006°46'0 0.0
2014-Nov-23 03:33N 62°00' W 006°46'0 0.0
2014-Nov-23 02:33N 62°00' W 006°46'0 0.0
2014-Nov-23 01:33N 62°00' W 006°46'0 0.0
2014-Nov-23 00:33N 62°00' W 006°46'0 0.0
2014-Nov-22 23:33N 62°00' W 006°46'0 0.0
2014-Nov-22 22:33N 62°00' W 006°46'0 0.0
2014-Nov-22 21:33N 62°00' W 006°46'0 0.0
2014-Nov-22 20:33N 62°00' W 006°46'0 0.0
2014-Nov-22 19:33N 62°00' W 006°46'0 0.0
2014-Nov-22 18:33N 62°00' W 006°46'0 0.0
2014-Nov-22 17:33N 62°00' W 006°46'0 0.0
2014-Nov-22 16:33N 62°00' W 006°46'0 0.0
2014-Nov-22 15:33N 62°00' W 006°46'0 0.0
2014-Nov-22 14:33N 62°00' W 006°46'0 0.0
2014-Nov-22 13:33N 62°00' W 006°46'0 0.0
2014-Nov-22 12:33N 62°00' W 006°46'0 0.0
2014-Nov-22 11:33N 62°00' W 006°46'0 0.0
2014-Nov-22 10:33N 62°00' W 006°46'0 0.0
2014-Nov-22 09:33N 62°00' W 006°46'0 0.0
2014-Nov-22 08:33N 62°00' W 006°46'0 0.0
2014-Nov-22 07:33N 62°00' W 006°46'0 0.0
2014-Nov-22 06:33N 62°00' W 006°46'0 0.0
2014-Nov-22 05:33N 62°00' W 006°46'0 0.0
2014-Nov-22 04:33N 62°00' W 006°46'0 0.0
2014-Nov-22 03:33N 62°00' W 006°46'0 0.0
2014-Nov-22 02:33N 62°00' W 006°46'0 0.0
2014-Nov-22 01:33N 62°00' W 006°46'0 0.0
2014-Nov-22 00:33N 62°00' W 006°46'0 0.0
2014-Nov-21 23:33N 62°00' W 006°46'0 0.0
2014-Nov-21 22:33N 62°00' W 006°46'0 0.0
2014-Nov-21 21:33N 62°00' W 006°46'0 0.0
2014-Nov-21 20:33N 62°00' W 006°46'0 0.0
2014-Nov-21 19:33N 62°00' W 006°46'0 0.0
2014-Nov-21 18:33N 62°00' W 006°46'0 0.0
2014-Nov-21 17:33N 62°00' W 006°46'0 0.0
2014-Nov-21 16:33N 62°00' W 006°46'0 0.0
2014-Nov-21 15:33N 62°00' W 006°46'0 0.0
2014-Nov-21 14:33N 62°00' W 006°46'0 0.0
2014-Nov-21 13:33N 62°00' W 006°46'0 0.0
2014-Nov-21 12:33N 62°00' W 006°46'0 0.0
2014-Nov-21 11:33N 62°00' W 006°46'0 0.0
2014-Nov-21 10:33N 62°00' W 006°46'0 0.0
2014-Nov-21 09:33N 62°00' W 006°46'0 0.0
2014-Nov-21 08:33N 62°00' W 006°46'0 0.0
2014-Nov-21 07:34N 62°00' W 006°46'2 2.2
2014-Nov-21 06:33N 62°02' W 006°43'2 1.5
2014-Nov-21 05:33N 62°00' W 006°44'5 5.3
2014-Nov-21 04:33N 61°56' W 006°49'8 8.1
2014-Nov-21 03:33N 61°55' W 007°06'8 8.4
2014-Nov-21 02:33N 61°53' W 007°23'24 5.5
2014-Nov-20 22:05N 61°45' W 008°12'  
2014-Nov-16 07:17N 61°29' W 007°52'2 0.2
2014-Nov-15 20:33N 61°27' W 007°55'0 0.0
2014-Nov-15 09:09N 61°27' W 007°55'  
Track history (hours):
 
Tides and Currents Weather Stations Pressure Air Temp Water Temp Dewpoint Dewpoint Depression Visibility Wind Speed Wind Dir Waves Ship Positions

Havbugvin

Last reported at 2014-Nov-24 02:33 UTC. Time now 2014-Nov-24 02:59 UTC.
Position N 62°00' W 006°46'.

Length 38 m.

Type: Fishing. MMSI: 231181000.

Date/timePositionNaut miles runAvg speedWind from/ knotsBaromVisibWave heightAir tempDewpointWater temp
2014-Nov-24 02:33N 62°00' W 006°46'0 0.0
2014-Nov-24 01:33N 62°00' W 006°46'0 0.0
2014-Nov-24 00:33N 62°00' W 006°46'0 0.0
2014-Nov-23 23:33N 62°00' W 006°46'0 0.0
2014-Nov-23 22:33N 62°00' W 006°46'0 0.0
2014-Nov-23 21:33N 62°00' W 006°46'0 0.0
2014-Nov-23 20:33N 62°00' W 006°46'0 0.0
2014-Nov-23 19:33N 62°00' W 006°46'0 0.0
2014-Nov-23 18:33N 62°00' W 006°46'0 0.0
2014-Nov-23 17:33N 62°00' W 006°46'0 0.0
2014-Nov-23 16:33N 62°00' W 006°46'0 0.0
2014-Nov-23 15:33N 62°00' W 006°46'0 0.0
2014-Nov-23 14:33N 62°00' W 006°46'0 0.0
2014-Nov-23 13:33N 62°00' W 006°46'0 0.0
2014-Nov-23 12:33N 62°00' W 006°46'0 0.0
2014-Nov-23 11:33N 62°00' W 006°46'0 0.0
2014-Nov-23 10:33N 62°00' W 006°46'0 0.0
2014-Nov-23 09:33N 62°00' W 006°46'0 0.0
2014-Nov-23 08:33N 62°00' W 006°46'0 0.0
2014-Nov-23 07:33N 62°00' W 006°46'0 0.0
2014-Nov-23 06:33N 62°00' W 006°46'0 0.0
2014-Nov-23 05:33N 62°00' W 006°46'0 0.0
2014-Nov-23 04:33N 62°00' W 006°46'0 0.0
2014-Nov-23 03:33N 62°00' W 006°46'0 0.0
2014-Nov-23 02:33N 62°00' W 006°46'0 0.0
2014-Nov-23 01:33N 62°00' W 006°46'0 0.0
2014-Nov-23 00:33N 62°00' W 006°46'0 0.0
2014-Nov-22 23:33N 62°00' W 006°46'0 0.0
2014-Nov-22 22:33N 62°00' W 006°46'0 0.0
2014-Nov-22 21:33N 62°00' W 006°46'0 0.0
2014-Nov-22 20:33N 62°00' W 006°46'0 0.0
2014-Nov-22 19:33N 62°00' W 006°46'0 0.0
2014-Nov-22 18:33N 62°00' W 006°46'0 0.0
2014-Nov-22 17:33N 62°00' W 006°46'0 0.0
2014-Nov-22 16:33N 62°00' W 006°46'0 0.0
2014-Nov-22 15:33N 62°00' W 006°46'0 0.0
2014-Nov-22 14:33N 62°00' W 006°46'0 0.0
2014-Nov-22 13:33N 62°00' W 006°46'0 0.0
2014-Nov-22 12:33N 62°00' W 006°46'0 0.0
2014-Nov-22 11:33N 62°00' W 006°46'0 0.0
2014-Nov-22 10:33N 62°00' W 006°46'0 0.0
2014-Nov-22 09:33N 62°00' W 006°46'0 0.0
2014-Nov-22 08:33N 62°00' W 006°46'0 0.0
2014-Nov-22 07:33N 62°00' W 006°46'0 0.0
2014-Nov-22 06:33N 62°00' W 006°46'0 0.0
2014-Nov-22 05:33N 62°00' W 006°46'0 0.0
2014-Nov-22 04:33N 62°00' W 006°46'0 0.0
2014-Nov-22 03:33N 62°00' W 006°46'0 0.0
2014-Nov-22 02:33N 62°00' W 006°46'0 0.0
2014-Nov-22 01:33N 62°00' W 006°46'0 0.0
2014-Nov-22 00:33N 62°00' W 006°46'0 0.0
2014-Nov-21 23:33N 62°00' W 006°46'0 0.0
2014-Nov-21 22:33N 62°00' W 006°46'0 0.0
2014-Nov-21 21:33N 62°00' W 006°46'0 0.0
2014-Nov-21 20:33N 62°00' W 006°46'0 0.0
2014-Nov-21 19:33N 62°00' W 006°46'0 0.0
2014-Nov-21 18:33N 62°00' W 006°46'0 0.0
2014-Nov-21 17:33N 62°00' W 006°46'0 0.0
2014-Nov-21 16:33N 62°00' W 006°46'0 0.0
2014-Nov-21 15:33N 62°00' W 006°46'0 0.0
2014-Nov-21 14:33N 62°00' W 006°46'0 0.0
2014-Nov-21 13:33N 62°00' W 006°46'0 0.0
2014-Nov-21 12:33N 62°00' W 006°46'0 0.0
2014-Nov-21 11:33N 62°00' W 006°46'0 0.0
2014-Nov-21 10:33N 62°00' W 006°46'0 0.0
2014-Nov-21 09:33N 62°00' W 006°46'0 0.0
2014-Nov-21 08:33N 62°00' W 006°46'0 0.0
2014-Nov-21 07:34N 62°00' W 006°46'2 2.2
2014-Nov-21 06:33N 62°02' W 006°43'2 1.5
2014-Nov-21 05:33N 62°00' W 006°44'5 5.3
2014-Nov-21 04:33N 61°56' W 006°49'8 8.1
2014-Nov-21 03:33N 61°55' W 007°06'8 8.4
2014-Nov-21 02:33N 61°53' W 007°23'24 5.5
2014-Nov-20 22:05N 61°45' W 008°12'  
2014-Nov-16 07:17N 61°29' W 007°52'2 0.2
2014-Nov-15 20:33N 61°27' W 007°55'0 0.0
2014-Nov-15 09:09N 61°27' W 007°55'  

Dump ship's entire track history